Time;durP1;ratioP1;P1;durP2;ratioP2;P2;SDS_P1;SDS_P2;PMS_P1;PMS_P2;Temp;Humidity;BMP_temperature;BMP_pressure;BME280_temperature;BME280_humidity;BME280_pressure;Samples;Min_cycle;Max_cycle;Signal;HPM_P1;HPM_P2
2021/12/06 00:01:58;;;;;;;2.53;1.17;;;;;;;;;;5038459;28;20139;-70
2021/12/06 00:04:26;;;;;;;4.93;2.38;;;;;;;;;;5033850;28;20024;-71
2021/12/06 00:06:56;;;;;;;2.30;1.38;;;;;;;;;;5042028;28;20227;-71
2021/12/06 00:09:29;;;;;;;2.45;2.08;;;;;;;;;;5040863;28;20112;-71
2021/12/06 00:12:00;;;;;;;1.42;1.33;;;;;;;;;;5038288;28;20034;-71
2021/12/06 00:14:28;;;;;;;2.53;2.28;;;;;;;;;;5034827;28;20021;-71
2021/12/06 00:16:57;;;;;;;0.25;0.25;;;;;;;;;;5035202;28;20431;-70
2021/12/06 00:19:23;;;;;;;1.92;1.77;;;;;;;;;;5033206;28;20416;-71
2021/12/06 00:21:50;;;;;;;2.28;2.00;;;;;;;;;;5035340;28;20045;-71
2021/12/06 00:24:16;;;;;;;3.60;2.70;;;;;;;;;;5030146;28;20057;-70
2021/12/06 00:26:42;;;;;;;1.25;0.88;;;;;;;;;;5030332;28;20423;-70
2021/12/06 00:29:09;;;;;;;0.73;0.73;;;;;;;;;;5037401;28;20519;-71
2021/12/06 00:31:35;;;;;;;4.68;2.38;;;;;;;;;;5039035;28;20021;-70
2021/12/06 00:34:05;;;;;;;2.50;1.58;;;;;;;;;;5032810;28;20035;-71
2021/12/06 00:36:32;;;;;;;3.33;2.05;;;;;;;;;;5037024;28;20035;-70
2021/12/06 00:38:59;;;;;;;3.25;2.25;;;;;;;;;;5037916;28;20029;-71
2021/12/06 00:41:26;;;;;;;4.95;3.22;;;;;;;;;;5034519;28;20091;-71
2021/12/06 00:43:52;;;;;;;1.65;1.55;;;;;;;;;;5041168;28;20396;-70
2021/12/06 00:46:18;;;;;;;8.80;2.58;;;;;;;;;;5039088;28;20065;-71
2021/12/06 00:48:44;;;;;;;1.95;1.38;;;;;;;;;;5029865;28;20042;-70
2021/12/06 00:51:11;;;;;;;1.63;1.52;;;;;;;;;;5037050;28;20071;-70
2021/12/06 00:53:37;;;;;;;1.67;1.58;;;;;;;;;;5036466;28;20028;-70
2021/12/06 00:56:03;;;;;;;1.00;1.00;;;;;;;;;;5029641;28;20064;-70
2021/12/06 00:58:29;;;;;;;1.88;1.77;;;;;;;;;;5039214;28;20033;-71
2021/12/06 01:00:56;;;;;;;1.15;1.15;;;;;;;;;;5042623;28;20033;-71
2021/12/06 01:03:24;;;;;;;1.75;1.65;;;;;;;;;;5047749;28;20047;-70
2021/12/06 01:05:50;;;;;;;1.35;1.25;;;;;;;;;;5048684;28;20086;-71
2021/12/06 01:08:16;;;;;;;0.82;0.82;;;;;;;;;;5048619;28;20104;-70
2021/12/06 01:10:42;;;;;;;0.90;0.90;;;;;;;;;;5030097;28;20025;-70
2021/12/06 01:13:08;;;;;;;1.67;1.38;;;;;;;;;;5032726;28;20094;-70
2021/12/06 01:15:35;;;;;;;1.55;1.45;;;;;;;;;;5040013;28;20021;-70
2021/12/06 01:18:03;;;;;;;0.70;0.70;;;;;;;;;;5037858;28;20041;-70
2021/12/06 01:20:31;;;;;;;1.63;1.52;;;;;;;;;;5043280;28;20056;-71
2021/12/06 01:23:05;;;;;;;2.53;1.33;;;;;;;;;;5032941;28;20520;-71
2021/12/06 01:25:58;;;;;;;2.15;1.98;;;;;;;;;;5049378;28;20040;-70
2021/12/06 01:41:25;;;;;;;2.00;1.55;;;;;;;;;;5047058;28;20040;-70
2021/12/06 01:44:10;;;;;;;1.25;1.17;;;;;;;;;;5035053;28;20128;-71
2021/12/06 01:46:45;;;;;;;0.52;0.52;;;;;;;;;;5046552;28;20053;-70
2021/12/06 01:49:11;;;;;;;1.85;1.65;;;;;;;;;;5028980;28;20523;-70
2021/12/06 01:51:37;;;;;;;0.80;0.80;;;;;;;;;;5029236;28;20025;-70
2021/12/06 01:54:04;;;;;;;1.30;1.23;;;;;;;;;;5037975;28;20067;-70
2021/12/06 01:56:30;;;;;;;0.55;0.55;;;;;;;;;;5047323;28;20029;-70
2021/12/06 01:58:56;;;;;;;1.92;1.75;;;;;;;;;;5047693;28;20438;-70
2021/12/06 02:01:23;;;;;;;1.20;1.10;;;;;;;;;;5044419;28;20048;-70
2021/12/06 02:03:49;;;;;;;1.80;1.65;;;;;;;;;;5028482;28;20041;-71
2021/12/06 02:06:15;;;;;;;1.52;1.42;;;;;;;;;;5028992;28;20083;-70
2021/12/06 02:08:41;;;;;;;2.15;0.93;;;;;;;;;;5028766;28;20480;-71
2021/12/06 02:11:08;;;;;;;2.33;1.33;;;;;;;;;;5040632;28;20051;-71
2021/12/06 02:13:44;;;;;;;1.30;1.23;;;;;;;;;;5043963;28;20031;-71
2021/12/06 02:16:10;;;;;;;0.75;0.75;;;;;;;;;;5030485;28;20480;-71
2021/12/06 02:21:25;;;;;;;1.73;1.23;;;;;;;;;;5029150;28;20061;-71
2021/12/06 02:23:51;;;;;;;12.10;3.58;;;;;;;;;;5041067;28;20507;-71
2021/12/06 02:26:18;;;;;;;0.65;0.65;;;;;;;;;;5035863;28;20035;-70
2021/12/06 02:28:44;;;;;;;2.38;2.17;;;;;;;;;;5033538;28;20451;-71
2021/12/06 02:31:10;;;;;;;1.33;1.13;;;;;;;;;;5044664;28;20479;-71
2021/12/06 02:33:36;;;;;;;2.38;2.13;;;;;;;;;;5046805;28;20056;-71
2021/12/06 02:36:02;;;;;;;6.20;1.88;;;;;;;;;;5040084;28;20037;-71
2021/12/06 02:38:29;;;;;;;1.50;1.40;;;;;;;;;;5031438;28;20021;-71
2021/12/06 02:40:55;;;;;;;5.97;2.40;;;;;;;;;;5033280;28;20021;-71
2021/12/06 02:43:21;;;;;;;0.75;0.75;;;;;;;;;;5034082;28;20061;-71
2021/12/06 02:45:47;;;;;;;2.28;1.80;;;;;;;;;;5042651;28;20440;-71
2021/12/06 02:48:14;;;;;;;1.65;1.38;;;;;;;;;;5034841;28;20479;-70
2021/12/06 02:50:51;;;;;;;3.38;2.47;;;;;;;;;;5047488;28;20164;-70
2021/12/06 02:53:18;;;;;;;1.42;1.33;;;;;;;;;;5042961;28;20052;-70
2021/12/06 02:55:52;;;;;;;2.20;1.95;;;;;;;;;;5032173;28;20037;-70
2021/12/06 02:58:42;;;;;;;0.60;0.60;;;;;;;;;;5044545;28;20185;-70
2021/12/06 03:01:09;;;;;;;0.57;0.57;;;;;;;;;;5044356;28;20072;-70
2021/12/06 03:03:36;;;;;;;1.13;1.13;;;;;;;;;;5051571;28;20036;-70
2021/12/06 03:06:02;;;;;;;1.45;1.38;;;;;;;;;;5050857;28;20480;-70
2021/12/06 03:08:41;;;;;;;3.38;2.45;;;;;;;;;;5033721;28;20052;-70
2021/12/06 03:11:10;;;;;;;1.00;0.82;;;;;;;;;;5034984;28;20108;-71
2021/12/06 03:13:36;;;;;;;2.35;2.15;;;;;;;;;;5043105;28;20028;-70
2021/12/06 03:16:02;;;;;;;2.58;2.00;;;;;;;;;;5041679;28;20021;-70
2021/12/06 03:18:28;;;;;;;0.57;0.57;;;;;;;;;;5032128;28;20074;-70
2021/12/06 03:20:54;;;;;;;5.57;3.20;;;;;;;;;;5032358;28;20526;-70
2021/12/06 03:23:20;;;;;;;1.85;1.20;;;;;;;;;;5031341;28;20132;-70
2021/12/06 03:25:46;;;;;;;0.70;0.70;;;;;;;;;;5032194;28;20029;-71
2021/12/06 03:28:12;;;;;;;2.78;1.77;;;;;;;;;;5049852;28;20060;-70
2021/12/06 03:30:38;;;;;;;2.88;2.47;;;;;;;;;;5039526;28;20145;-70
2021/12/06 03:33:04;;;;;;;0.82;0.82;;;;;;;;;;5033622;28;20029;-70
2021/12/06 03:35:30;;;;;;;0.85;0.85;;;;;;;;;;5039199;28;20028;-71
2021/12/06 03:37:56;;;;;;;1.65;1.55;;;;;;;;;;5047769;28;20021;-70
2021/12/06 03:40:22;;;;;;;1.95;1.75;;;;;;;;;;5034091;28;20033;-70
2021/12/06 03:42:48;;;;;;;0.88;0.85;;;;;;;;;;5030836;28;20030;-70
2021/12/06 03:45:14;;;;;;;0.63;0.63;;;;;;;;;;5035426;28;20103;-70
2021/12/06 03:47:40;;;;;;;1.15;1.08;;;;;;;;;;5030729;28;20061;-70
2021/12/06 03:50:07;;;;;;;0.55;0.55;;;;;;;;;;5035549;28;20034;-71
2021/12/06 03:52:33;;;;;;;2.40;2.03;;;;;;;;;;5044100;28;20056;-70
2021/12/06 03:54:59;;;;;;;1.20;1.20;;;;;;;;;;5042129;28;20116;-70
2021/12/06 03:57:25;;;;;;;1.65;1.55;;;;;;;;;;5052833;28;20032;-70
2021/12/06 03:59:52;;;;;;;1.23;1.13;;;;;;;;;;5032570;28;20029;-70
2021/12/06 04:02:18;;;;;;;7.35;1.67;;;;;;;;;;5046399;28;20152;-70
2021/12/06 04:04:45;;;;;;;2.47;1.60;;;;;;;;;;5030346;28;20041;-70
2021/12/06 04:07:10;;;;;;;1.73;1.58;;;;;;;;;;5031557;28;20033;-70
2021/12/06 04:09:37;;;;;;;7.93;2.25;;;;;;;;;;5045532;28;20041;-70
2021/12/06 04:12:04;;;;;;;2.15;1.50;;;;;;;;;;5038966;28;20037;-71
2021/12/06 04:14:33;;;;;;;1.42;1.38;;;;;;;;;;5042336;28;20101;-70
2021/12/06 04:16:59;;;;;;;1.70;1.55;;;;;;;;;;5033099;28;20029;-70
2021/12/06 04:19:24;;;;;;;2.42;2.22;;;;;;;;;;5030404;28;20044;-70
2021/12/06 04:21:50;;;;;;;0.68;0.63;;;;;;;;;;5043104;28;20034;-71
2021/12/06 04:24:17;;;;;;;0.82;0.82;;;;;;;;;;5049875;28;20041;-70
2021/12/06 04:26:44;;;;;;;1.40;1.30;;;;;;;;;;5032706;28;20029;-70
2021/12/06 04:29:11;;;;;;;3.33;2.33;;;;;;;;;;5038232;28;20098;-70
2021/12/06 04:31:38;;;;;;;1.83;1.27;;;;;;;;;;5040297;28;20040;-70
2021/12/06 04:34:05;;;;;;;2.53;1.60;;;;;;;;;;5033859;28;20051;-70
2021/12/06 04:36:31;;;;;;;2.92;1.52;;;;;;;;;;5043607;28;20025;-70
2021/12/06 04:38:57;;;;;;;1.50;1.45;;;;;;;;;;5030255;28;20068;-70
2021/12/06 04:41:23;;;;;;;1.05;0.98;;;;;;;;;;5037692;28;20442;-70
2021/12/06 04:43:49;;;;;;;0.60;0.60;;;;;;;;;;5042886;28;20641;-70
2021/12/06 04:46:15;;;;;;;1.13;1.00;;;;;;;;;;5033165;28;20036;-70
2021/12/06 04:48:41;;;;;;;1.70;1.42;;;;;;;;;;5039838;28;20033;-70
2021/12/06 04:51:07;;;;;;;1.27;1.15;;;;;;;;;;5044143;28;20029;-70
2021/12/06 04:53:36;;;;;;;0.85;0.85;;;;;;;;;;5033778;28;20090;-70
2021/12/06 04:56:11;;;;;;;1.27;1.17;;;;;;;;;;5048058;28;20096;-70
2021/12/06 04:58:46;;;;;;;3.28;2.28;;;;;;;;;;5029841;28;20494;-70
2021/12/06 05:01:14;;;;;;;4.50;1.83;;;;;;;;;;5043247;28;20029;-69
2021/12/06 05:03:41;;;;;;;2.88;1.60;;;;;;;;;;5035167;28;20047;-70
2021/12/06 05:06:10;;;;;;;5.18;2.83;;;;;;;;;;5034020;28;20028;-70
2021/12/06 05:08:38;;;;;;;3.53;2.35;;;;;;;;;;5036873;28;20246;-70
2021/12/06 05:11:04;;;;;;;3.88;2.67;;;;;;;;;;5047368;28;20029;-70
2021/12/06 05:13:31;;;;;;;1.48;1.38;;;;;;;;;;5041011;28;20094;-70
2021/12/06 05:15:57;;;;;;;1.65;1.25;;;;;;;;;;5034003;28;20075;-70
2021/12/06 05:18:23;;;;;;;4.22;2.88;;;;;;;;;;5036143;28;20025;-70
2021/12/06 05:20:50;;;;;;;0.85;0.85;;;;;;;;;;5048231;28;20427;-70
2021/12/06 05:23:18;;;;;;;1.48;1.38;;;;;;;;;;5028846;28;20049;-70
2021/12/06 05:25:44;;;;;;;2.08;1.15;;;;;;;;;;5034765;28;20036;-70
2021/12/06 05:28:10;;;;;;;2.00;1.75;;;;;;;;;;5041117;28;20033;-70
2021/12/06 05:30:37;;;;;;;2.38;2.10;;;;;;;;;;5044895;28;20044;-70
2021/12/06 05:33:04;;;;;;;4.90;1.90;;;;;;;;;;5045324;28;20029;-70
2021/12/06 05:35:30;;;;;;;1.27;1.27;;;;;;;;;;5029684;28;20074;-70
2021/12/06 05:37:57;;;;;;;1.55;1.45;;;;;;;;;;5028929;28;20029;-70
2021/12/06 05:40:25;;;;;;;2.55;1.50;;;;;;;;;;5034387;28;20040;-70
2021/12/06 05:42:51;;;;;;;2.42;2.22;;;;;;;;;;5035590;28;20404;-70
2021/12/06 05:45:19;;;;;;;11.68;2.10;;;;;;;;;;5032838;28;20145;-70
2021/12/06 05:47:45;;;;;;;1.90;1.80;;;;;;;;;;5034069;28;20033;-70
2021/12/06 05:50:11;;;;;;;2.53;2.28;;;;;;;;;;5030282;28;20048;-70
2021/12/06 05:52:37;;;;;;;1.48;1.40;;;;;;;;;;5040406;28;20121;-70
2021/12/06 05:55:05;;;;;;;5.50;3.33;;;;;;;;;;5032452;28;20112;-70
2021/12/06 05:57:31;;;;;;;2.35;1.70;;;;;;;;;;5036393;28;20037;-70
2021/12/06 05:59:57;;;;;;;7.45;2.45;;;;;;;;;;5032095;28;20057;-70
2021/12/06 06:02:23;;;;;;;4.72;2.55;;;;;;;;;;5037580;28;20126;-70
2021/12/06 06:04:49;;;;;;;3.70;1.67;;;;;;;;;;5031328;28;20634;-71
2021/12/06 06:07:15;;;;;;;2.58;1.48;;;;;;;;;;5031570;28;20123;-70
2021/12/06 06:09:44;;;;;;;1.25;1.15;;;;;;;;;;5052611;28;20029;-70
2021/12/06 06:12:10;;;;;;;2.75;2.15;;;;;;;;;;5038173;28;20029;-70
2021/12/06 06:14:36;;;;;;;1.55;1.45;;;;;;;;;;5036201;28;20025;-71
2021/12/06 06:17:12;;;;;;;2.55;1.98;;;;;;;;;;5033871;28;20053;-70
2021/12/06 06:19:40;;;;;;;1.48;1.35;;;;;;;;;;5037129;28;20033;-70
2021/12/06 06:22:06;;;;;;;2.47;1.42;;;;;;;;;;5037543;28;20037;-70
2021/12/06 06:24:32;;;;;;;1.08;1.02;;;;;;;;;;5037885;28;20044;-70
2021/12/06 06:26:58;;;;;;;3.88;2.45;;;;;;;;;;5029697;28;20365;-71
2021/12/06 06:29:24;;;;;;;1.13;1.10;;;;;;;;;;5039082;28;20056;-71
2021/12/06 06:31:50;;;;;;;2.13;1.98;;;;;;;;;;5034729;28;20025;-70
2021/12/06 06:34:16;;;;;;;2.33;2.08;;;;;;;;;;5045625;28;20365;-71
2021/12/06 06:36:42;;;;;;;2.13;1.63;;;;;;;;;;5040225;28;20535;-71
2021/12/06 06:39:08;;;;;;;4.68;1.90;;;;;;;;;;5042245;28;20431;-71
2021/12/06 06:41:35;;;;;;;1.60;1.50;;;;;;;;;;5036000;28;20435;-72
2021/12/06 06:44:01;;;;;;;2.35;2.00;;;;;;;;;;5039448;28;20044;-73
2021/12/06 06:46:27;;;;;;;1.83;1.73;;;;;;;;;;5032593;28;20033;-71
2021/12/06 06:48:53;;;;;;;6.85;2.63;;;;;;;;;;5036450;28;20022;-74
2021/12/06 06:51:19;;;;;;;1.80;1.65;;;;;;;;;;5035509;28;20120;-76
2021/12/06 06:53:45;;;;;;;0.75;0.75;;;;;;;;;;5031861;28;20458;-74
2021/12/06 06:56:11;;;;;;;1.88;1.75;;;;;;;;;;5030899;28;20384;-74
2021/12/06 06:58:37;;;;;;;1.90;1.73;;;;;;;;;;5033196;28;20042;-73
2021/12/06 07:01:03;;;;;;;0.60;0.60;;;;;;;;;;5035690;28;20542;-74
2021/12/06 07:03:32;;;;;;;2.17;1.70;;;;;;;;;;5035018;28;20017;-74
2021/12/06 07:05:59;;;;;;;2.28;2.15;;;;;;;;;;5031752;28;20025;-74
2021/12/06 07:08:25;;;;;;;1.73;1.63;;;;;;;;;;5032775;28;20098;-74
2021/12/06 07:10:52;;;;;;;1.33;1.25;;;;;;;;;;5038278;28;20426;-74
2021/12/06 07:13:18;;;;;;;3.08;2.08;;;;;;;;;;5036041;28;20028;-74
2021/12/06 07:15:44;;;;;;;6.40;1.98;;;;;;;;;;5045205;28;20049;-74
2021/12/06 07:18:10;;;;;;;1.38;1.25;;;;;;;;;;5051062;28;20052;-74
2021/12/06 07:20:36;;;;;;;7.57;2.83;;;;;;;;;;5045561;28;20029;-74
2021/12/06 07:23:03;;;;;;;0.95;0.95;;;;;;;;;;5042840;28;20064;-73
2021/12/06 07:25:29;;;;;;;0.95;0.95;;;;;;;;;;5039048;28;20060;-73
2021/12/06 07:27:57;;;;;;;0.70;0.70;;;;;;;;;;5038658;28;20037;-74
2021/12/06 07:30:23;;;;;;;2.90;2.00;;;;;;;;;;5040092;28;20395;-80
2021/12/06 07:32:51;;;;;;;2.72;2.53;;;;;;;;;;5030526;28;20060;-72
2021/12/06 07:35:17;;;;;;;1.60;1.52;;;;;;;;;;5041663;28;20017;-78
2021/12/06 07:37:44;;;;;;;1.05;1.05;;;;;;;;;;5042916;28;20036;-72
2021/12/06 07:40:10;;;;;;;1.40;1.13;;;;;;;;;;5033843;28;20399;-72
2021/12/06 07:42:36;;;;;;;2.97;1.20;;;;;;;;;;5032346;28;20034;-70
2021/12/06 07:45:03;;;;;;;0.68;0.45;;;;;;;;;;5027837;28;20053;-71
2021/12/06 07:47:29;;;;;;;1.38;1.27;;;;;;;;;;5042464;28;20026;-71
2021/12/06 07:49:55;;;;;;;3.92;2.50;;;;;;;;;;5036213;28;20488;-71
2021/12/06 07:52:21;;;;;;;1.10;1.02;;;;;;;;;;5038152;28;20029;-70
2021/12/06 07:54:47;;;;;;;6.32;3.13;;;;;;;;;;5039143;28;20040;-71
2021/12/06 07:57:13;;;;;;;2.35;2.25;;;;;;;;;;5038430;28;20128;-74
2021/12/06 07:59:39;;;;;;;1.98;1.50;;;;;;;;;;5031247;28;20052;-73
2021/12/06 08:02:08;;;;;;;0.70;0.68;;;;;;;;;;5047245;28;20589;-72
2021/12/06 08:04:34;;;;;;;2.28;1.63;;;;;;;;;;5046053;28;20033;-71
2021/12/06 08:07:00;;;;;;;2.33;2.10;;;;;;;;;;5035089;28;20037;-72
2021/12/06 08:09:26;;;;;;;1.58;1.42;;;;;;;;;;5035969;28;20048;-71
2021/12/06 08:11:53;;;;;;;2.30;2.10;;;;;;;;;;5033137;28;20079;-72
2021/12/06 08:14:19;;;;;;;8.18;2.35;;;;;;;;;;5033313;28;20511;-72
2021/12/06 08:16:46;;;;;;;1.15;1.05;;;;;;;;;;5034054;28;20435;-70
2021/12/06 08:19:12;;;;;;;4.07;2.50;;;;;;;;;;5034114;28;20391;-70
2021/12/06 08:21:39;;;;;;;0.85;0.85;;;;;;;;;;5031981;28;20022;-70
2021/12/06 08:24:06;;;;;;;28.83;4.32;;;;;;;;;;5040317;28;20553;-74
2021/12/06 08:26:34;;;;;;;3.72;2.92;;;;;;;;;;5039982;28;20094;-70
2021/12/06 08:29:02;;;;;;;6.75;2.78;;;;;;;;;;5039550;28;20495;-71
2021/12/06 08:31:29;;;;;;;4.18;2.58;;;;;;;;;;5042356;28;20024;-69
2021/12/06 08:33:55;;;;;;;0.88;0.68;;;;;;;;;;5026714;28;20100;-69
2021/12/06 08:36:22;;;;;;;5.93;3.35;;;;;;;;;;5030641;28;20029;-70
2021/12/06 08:38:48;;;;;;;2.28;2.13;;;;;;;;;;5045853;28;20036;-69
2021/12/06 08:41:16;;;;;;;2.33;0.90;;;;;;;;;;5036587;28;20071;-70
2021/12/06 08:43:43;;;;;;;1.77;1.67;;;;;;;;;;5037684;28;20497;-70
2021/12/06 08:46:16;;;;;;;0.75;0.75;;;;;;;;;;5031835;28;20040;-69
2021/12/06 08:48:42;;;;;;;0.90;0.82;;;;;;;;;;5043255;28;20033;-68
2021/12/06 08:51:12;;;;;;;1.52;1.42;;;;;;;;;;5029879;28;20116;-69
2021/12/06 08:53:38;;;;;;;5.03;0.95;;;;;;;;;;5038701;28;20350;-68
2021/12/06 08:56:05;;;;;;;1.90;1.70;;;;;;;;;;5030142;28;20022;-68
2021/12/06 08:58:31;;;;;;;2.35;1.95;;;;;;;;;;5035964;28;20052;-68
2021/12/06 09:00:57;;;;;;;0.98;0.95;;;;;;;;;;5042624;28;20403;-68
2021/12/06 09:03:23;;;;;;;4.43;2.78;;;;;;;;;;5033682;28;20055;-68
2021/12/06 09:05:50;;;;;;;4.63;2.35;;;;;;;;;;5030121;28;20040;-68
2021/12/06 09:08:16;;;;;;;1.67;1.58;;;;;;;;;;5035535;28;20033;-68
2021/12/06 09:10:43;;;;;;;2.22;2.08;;;;;;;;;;5030120;28;20033;-68
2021/12/06 09:13:09;;;;;;;0.57;0.57;;;;;;;;;;5033576;28;20182;-68
2021/12/06 09:15:35;;;;;;;1.52;1.42;;;;;;;;;;5038638;28;20116;-69
2021/12/06 09:18:02;;;;;;;2.10;0.85;;;;;;;;;;5030198;28;20543;-68
2021/12/06 09:20:33;;;;;;;1.75;1.65;;;;;;;;;;5047221;28;20341;-69
2021/12/06 09:22:59;;;;;;;0.88;0.88;;;;;;;;;;5039300;28;20053;-68
2021/12/06 09:25:25;;;;;;;0.90;0.90;;;;;;;;;;5031930;28;20021;-69
2021/12/06 09:27:51;;;;;;;0.95;0.68;;;;;;;;;;5038283;28;20028;-68
2021/12/06 09:30:19;;;;;;;3.47;2.22;;;;;;;;;;5026944;28;20029;-68
2021/12/06 09:32:45;;;;;;;1.10;1.10;;;;;;;;;;5031890;28;20025;-69
2021/12/06 09:35:14;;;;;;;1.75;1.55;;;;;;;;;;5032795;28;20029;-70
2021/12/06 09:37:40;;;;;;;1.95;1.63;;;;;;;;;;5028826;28;20029;-69
2021/12/06 09:40:07;;;;;;;1.98;1.08;;;;;;;;;;5030511;28;20431;-69
2021/12/06 09:42:35;;;;;;;1.30;1.23;;;;;;;;;;5032808;28;20057;-70
2021/12/06 09:45:02;;;;;;;0.98;0.98;;;;;;;;;;5032740;28;20435;-69
2021/12/06 09:47:28;;;;;;;3.15;2.20;;;;;;;;;;5031620;28;20043;-70
2021/12/06 09:49:55;;;;;;;2.88;2.03;;;;;;;;;;5028612;28;20112;-70
2021/12/06 09:52:21;;;;;;;1.33;1.25;;;;;;;;;;5031901;28;20035;-71
2021/12/06 09:54:47;;;;;;;2.03;0.95;;;;;;;;;;5036556;28;20483;-69
2021/12/06 09:57:13;;;;;;;4.38;0.75;;;;;;;;;;5033356;28;20500;-70
2021/12/06 09:59:40;;;;;;;1.92;1.83;;;;;;;;;;5029370;28;20037;-70
2021/12/06 10:02:08;;;;;;;0.85;0.85;;;;;;;;;;5035082;28;20021;-70
2021/12/06 10:04:38;;;;;;;1.63;1.52;;;;;;;;;;5036047;28;20052;-70
2021/12/06 10:07:07;;;;;;;2.80;1.58;;;;;;;;;;5035812;28;20040;-71
2021/12/06 10:09:33;;;;;;;5.10;1.40;;;;;;;;;;5034167;28;20442;-70
2021/12/06 10:12:00;;;;;;;1.65;1.55;;;;;;;;;;5038407;28;20060;-70
2021/12/06 10:14:26;;;;;;;2.40;1.05;;;;;;;;;;5043126;28;20033;-70
2021/12/06 10:16:52;;;;;;;2.15;1.92;;;;;;;;;;5035206;28;20024;-71
2021/12/06 10:19:21;;;;;;;2.45;1.88;;;;;;;;;;5032282;28;20104;-71
2021/12/06 10:21:47;;;;;;;5.85;1.05;;;;;;;;;;5032557;28;20040;-71
2021/12/06 10:24:14;;;;;;;2.80;2.60;;;;;;;;;;5038994;28;20054;-71
2021/12/06 10:26:41;;;;;;;0.90;0.90;;;;;;;;;;5032540;28;20473;-71
2021/12/06 10:29:09;;;;;;;1.13;1.10;;;;;;;;;;5037319;28;20119;-71
2021/12/06 10:31:38;;;;;;;0.57;0.57;;;;;;;;;;5038280;28;20064;-71
2021/12/06 10:34:04;;;;;;;4.47;1.75;;;;;;;;;;5038245;28;20025;-71
2021/12/06 10:36:34;;;;;;;1.15;1.10;;;;;;;;;;5034284;28;20033;-71
2021/12/06 10:39:01;;;;;;;8.93;2.70;;;;;;;;;;5032606;28;20068;-69
2021/12/06 10:41:29;;;;;;;4.78;0.55;;;;;;;;;;5033542;28;20487;-72
2021/12/06 10:44:00;;;;;;;2.60;1.98;;;;;;;;;;5034676;28;20385;-70
2021/12/06 10:46:26;;;;;;;1.17;1.15;;;;;;;;;;5037037;28;20092;-70
2021/12/06 10:48:57;;;;;;;1.02;0.95;;;;;;;;;;5036814;28;20029;-69
2021/12/06 10:51:23;;;;;;;1.90;1.75;;;;;;;;;;5036392;28;20016;-69
2021/12/06 10:53:58;;;;;;;0.40;0.40;;;;;;;;;;5037642;28;20472;-69
2021/12/06 10:59:16;;;;;;;0.65;0.52;;;;;;;;;;5033654;28;20030;-69
2021/12/06 11:01:42;;;;;;;1.65;0.50;;;;;;;;;;5038633;28;20029;-69
2021/12/06 11:04:10;;;;;;;9.18;2.10;;;;;;;;;;5033015;28;20037;-69
2021/12/06 11:06:44;;;;;;;1.17;1.17;;;;;;;;;;5037423;28;20503;-69
2021/12/06 11:09:11;;;;;;;0.40;0.40;;;;;;;;;;5031398;28;20040;-70
2021/12/06 11:11:39;;;;;;;1.13;1.13;;;;;;;;;;5036386;28;20431;-68
2021/12/06 11:14:07;;;;;;;1.55;1.45;;;;;;;;;;5037603;28;20029;-69
2021/12/06 11:16:56;;;;;;;0.73;0.73;;;;;;;;;;5032093;28;20383;-69
2021/12/06 11:19:23;;;;;;;1.50;1.40;;;;;;;;;;5037634;28;20504;-69
2021/12/06 11:21:54;;;;;;;1.27;0.95;;;;;;;;;;5040615;28;20135;-69
2021/12/06 11:24:23;;;;;;;1.75;1.65;;;;;;;;;;5046684;28;20221;-69
2021/12/06 11:26:52;;;;;;;0.70;0.70;;;;;;;;;;5033454;28;20067;-69
2021/12/06 11:29:20;;;;;;;0.93;0.85;;;;;;;;;;5035535;28;20178;-69
2021/12/06 11:31:51;;;;;;;2.15;1.60;;;;;;;;;;5035197;28;20032;-69
2021/12/06 11:34:17;;;;;;;1.13;1.08;;;;;;;;;;5030885;28;20477;-69
2021/12/06 11:36:44;;;;;;;2.40;1.98;;;;;;;;;;5032506;28;20069;-68
2021/12/06 11:39:15;;;;;;;0.45;0.45;;;;;;;;;;5033713;28;20171;-69
2021/12/06 11:41:42;;;;;;;1.10;0.95;;;;;;;;;;5043014;28;20045;-69
2021/12/06 11:44:16;;;;;;;0.38;0.38;;;;;;;;;;5031153;28;20514;-69
2021/12/06 11:46:42;;;;;;;0.55;0.55;;;;;;;;;;5041429;28;21777;-69
2021/12/06 11:49:22;;;;;;;1.98;0.88;;;;;;;;;;5039176;28;20694;-69
2021/12/06 11:51:49;;;;;;;0.82;0.82;;;;;;;;;;5033536;28;20033;-69
2021/12/06 11:54:15;;;;;;;1.90;0.73;;;;;;;;;;5037572;28;20124;-70
2021/12/06 11:56:48;;;;;;;0.47;0.47;;;;;;;;;;5035145;28;20108;-69
2021/12/06 11:59:16;;;;;;;2.53;1.35;;;;;;;;;;5032663;28;20030;-69
2021/12/06 12:01:46;;;;;;;0.45;0.45;;;;;;;;;;5030187;28;20037;-69
2021/12/06 12:04:14;;;;;;;0.50;0.50;;;;;;;;;;5037065;28;20060;-70
2021/12/06 12:06:40;;;;;;;0.60;0.60;;;;;;;;;;5044261;28;20037;-69
2021/12/06 12:09:14;;;;;;;0.10;0.10;;;;;;;;;;5039683;28;20120;-69
2021/12/06 12:11:57;;;;;;;0.80;0.80;;;;;;;;;;5036057;28;20025;-70
2021/12/06 12:14:28;;;;;;;1.00;0.90;;;;;;;;;;5033888;28;20025;-69
2021/12/06 12:16:54;;;;;;;0.55;0.55;;;;;;;;;;5036559;28;20071;-69
2021/12/06 12:19:20;;;;;;;2.85;1.67;;;;;;;;;;5050542;28;20035;-69
2021/12/06 12:21:46;;;;;;;1.02;1.00;;;;;;;;;;5032801;28;20033;-69
2021/12/06 12:24:12;;;;;;;0.88;0.88;;;;;;;;;;5031677;28;20056;-69
2021/12/06 12:26:53;;;;;;;0.40;0.40;;;;;;;;;;5047523;28;20036;-69
2021/12/06 12:29:25;;;;;;;3.08;0.95;;;;;;;;;;5034448;28;20033;-70
2021/12/06 12:32:00;;;;;;;1.65;0.55;;;;;;;;;;5034817;28;20028;-69
2021/12/06 12:34:28;;;;;;;10.57;1.60;;;;;;;;;;5040414;28;20044;-69
2021/12/06 12:36:54;;;;;;;2.60;1.13;;;;;;;;;;5043032;28;20027;-69
2021/12/06 12:39:20;;;;;;;0.73;0.73;;;;;;;;;;5045882;28;20056;-70
2021/12/06 12:41:57;;;;;;;0.22;0.22;;;;;;;;;;5034441;28;20040;-69
2021/12/06 12:44:23;;;;;;;6.07;3.13;;;;;;;;;;5033446;28;20037;-69
2021/12/06 12:46:52;;;;;;;2.17;2.03;;;;;;;;;;5030960;28;20021;-69
2021/12/06 12:49:20;;;;;;;0.47;0.40;;;;;;;;;;5041545;28;20025;-69
2021/12/06 12:51:47;;;;;;;0.15;0.15;;;;;;;;;;5048743;28;20025;-69
2021/12/06 12:54:18;;;;;;;0.52;0.52;;;;;;;;;;5043002;28;20143;-68
2021/12/06 12:56:56;;;;;;;0.85;0.75;;;;;;;;;;5038794;28;20059;-69
2021/12/06 12:59:26;;;;;;;1.30;1.20;;;;;;;;;;5030018;28;20409;-68
2021/12/06 13:02:12;;;;;;;0.15;0.15;;;;;;;;;;5029503;28;20079;-68
2021/12/06 13:04:57;;;;;;;0.75;0.75;;;;;;;;;;5036927;28;20022;-69
2021/12/06 13:07:23;;;;;;;0.50;0.50;;;;;;;;;;5039296;28;20025;-69
2021/12/06 13:09:49;;;;;;;0.50;0.50;;;;;;;;;;5039266;28;20129;-68
2021/12/06 13:12:16;;;;;;;3.05;1.30;;;;;;;;;;5040190;28;20112;-70
2021/12/06 13:14:48;;;;;;;0.43;0.43;;;;;;;;;;5033035;28;20036;-69
2021/12/06 13:17:24;;;;;;;0.57;0.57;;;;;;;;;;5027746;28;20053;-69
2021/12/06 13:20:06;;;;;;;0.65;0.65;;;;;;;;;;5029118;28;20034;-70
2021/12/06 13:22:32;;;;;;;0.40;0.40;;;;;;;;;;5035471;28;20033;-68
2021/12/06 13:25:00;;;;;;;0.30;0.30;;;;;;;;;;5046014;28;20028;-69
2021/12/06 13:27:32;;;;;;;1.48;0.98;;;;;;;;;;5028372;28;20053;-69
2021/12/06 13:30:07;;;;;;;0.57;0.57;;;;;;;;;;5039561;28;20028;-69
2021/12/06 13:32:36;;;;;;;0.63;0.63;;;;;;;;;;5037443;28;20029;-69
2021/12/06 13:35:20;;;;;;;1.33;1.23;;;;;;;;;;5040195;28;20113;-69
2021/12/06 13:38:06;;;;;;;1.02;1.02;;;;;;;;;;5029477;28;20506;-69
2021/12/06 13:40:34;;;;;;;0.85;0.75;;;;;;;;;;5028838;28;20033;-69
2021/12/06 13:43:07;;;;;;;1.30;1.25;;;;;;;;;;5030136;28;20033;-68
2021/12/06 13:45:37;;;;;;;1.00;0.82;;;;;;;;;;5028997;28;20451;-69
2021/12/06 13:48:12;;;;;;;2.17;1.00;;;;;;;;;;5034366;28;20041;-69
2021/12/06 13:50:38;;;;;;;0.82;0.80;;;;;;;;;;5035374;28;20041;-69
2021/12/06 13:53:04;;;;;;;0.55;0.55;;;;;;;;;;5035933;28;20034;-68
2021/12/06 13:55:37;;;;;;;3.88;0.95;;;;;;;;;;5036623;28;20525;-68
2021/12/06 13:58:07;;;;;;;0.93;0.93;;;;;;;;;;5039051;28;20484;-68
2021/12/06 14:00:42;;;;;;;1.27;1.27;;;;;;;;;;5039301;28;20036;-68
2021/12/06 14:03:12;;;;;;;0.30;0.30;;;;;;;;;;5035141;28;20101;-68
2021/12/06 14:05:40;;;;;;;0.95;0.93;;;;;;;;;;5032801;28;20051;-69
2021/12/06 14:08:06;;;;;;;0.45;0.45;;;;;;;;;;5035956;28;20026;-69
2021/12/06 14:10:36;;;;;;;7.22;2.00;;;;;;;;;;5031474;28;20357;-69
2021/12/06 14:13:07;;;;;;;0.20;0.20;;;;;;;;;;5045370;28;20025;-69
2021/12/06 14:15:42;;;;;;;1.52;0.98;;;;;;;;;;5044072;28;20090;-69
2021/12/06 14:18:08;;;;;;;1.02;0.90;;;;;;;;;;5042628;28;20029;-69
2021/12/06 14:20:34;;;;;;;0.75;0.70;;;;;;;;;;5038433;28;20519;-69
2021/12/06 14:23:03;;;;;;;1.50;1.40;;;;;;;;;;5030270;28;20060;-69
2021/12/06 14:25:30;;;;;;;0.52;0.45;;;;;;;;;;5038667;28;20033;-68
2021/12/06 14:27:56;;;;;;;0.50;0.50;;;;;;;;;;5031691;28;20462;-68
2021/12/06 14:30:24;;;;;;;0.32;0.32;;;;;;;;;;5041625;28;20036;-68
2021/12/06 14:32:52;;;;;;;0.15;0.15;;;;;;;;;;5038172;28;20021;-68
2021/12/06 14:35:19;;;;;;;0.10;0.10;;;;;;;;;;5030023;28;20071;-68
2021/12/06 14:37:45;;;;;;;0.68;0.65;;;;;;;;;;5042066;28;20383;-68
2021/12/06 14:40:12;;;;;;;0.30;0.30;;;;;;;;;;5034713;28;20029;-69
2021/12/06 14:42:39;;;;;;;0.40;0.40;;;;;;;;;;5031116;28;20501;-68
2021/12/06 14:45:10;;;;;;;0.63;0.63;;;;;;;;;;5043835;28;20037;-68
2021/12/06 14:47:42;;;;;;;3.85;1.27;;;;;;;;;;5039064;28;20051;-69
2021/12/06 14:50:14;;;;;;;0.28;0.28;;;;;;;;;;5040835;28;20057;-69
2021/12/06 14:52:42;;;;;;;2.00;0.63;;;;;;;;;;5048507;28;20056;-68
2021/12/06 14:55:22;;;;;;;2.38;1.70;;;;;;;;;;5034533;28;20035;-68
2021/12/06 14:57:49;;;;;;;0.25;0.25;;;;;;;;;;5046241;28;20057;-68
2021/12/06 15:00:17;;;;;;;0.60;0.60;;;;;;;;;;5047316;28;20024;-69
2021/12/06 15:02:54;;;;;;;0.82;0.82;;;;;;;;;;5041274;28;20563;-68
2021/12/06 15:05:22;;;;;;;4.22;1.67;;;;;;;;;;5035015;28;20029;-68
2021/12/06 15:07:55;;;;;;;1.08;0.98;;;;;;;;;;5037657;28;20076;-69